Terminal Aerodrome Forecast
Issued by NWS Jackson, MS

Home | Current Version | Previous Version | Text Only | Print | Product List | Glossary On
Versions: 1 2 3 4 5 6 7 8 9 10 11 12 13
012
FTUS44 KJAN 242320
TAFMEI
TAF
KMEI 242320Z 2500/2524 16015G24KT P6SM BKN040
     FM251200 17011KT P6SM VCTS BKN025CB
     FM251600 17012KT P6SM SHRA VCTS BKN025CB OVC050
     FM252000 18011KT P6SM TSRA BKN025CB BKN090=

USA.gov is the U.S. government's official web portal to all federal, state and local government web resources and services.